sensor_id;sensor_type;location;lat;lon;timestamp;P1;durP1;ratioP1;P2;durP2;ratioP2
1416;SDS011;703;51.162;13.574;2023-04-01T00:00:51;34.63;;;4.50;;
1416;SDS011;703;51.162;13.574;2023-04-01T00:03:18;35.07;;;5.00;;
1416;SDS011;703;51.162;13.574;2023-04-01T00:05:45;33.90;;;4.07;;
1416;SDS011;703;51.162;13.574;2023-04-01T00:08:11;34.27;;;4.50;;
1416;SDS011;703;51.162;13.574;2023-04-01T00:10:37;34.17;;;4.40;;
1416;SDS011;703;51.162;13.574;2023-04-01T00:13:02;37.00;;;5.00;;
1416;SDS011;703;51.162;13.574;2023-04-01T00:15:28;34.27;;;4.40;;
1416;SDS011;703;51.162;13.574;2023-04-01T00:17:53;35.50;;;5.30;;
1416;SDS011;703;51.162;13.574;2023-04-01T00:20:19;35.17;;;6.47;;
1416;SDS011;703;51.162;13.574;2023-04-01T00:22:45;36.30;;;7.40;;
1416;SDS011;703;51.162;13.574;2023-04-01T00:25:10;34.17;;;4.70;;
1416;SDS011;703;51.162;13.574;2023-04-01T00:27:36;35.73;;;4.17;;
1416;SDS011;703;51.162;13.574;2023-04-01T00:30:02;35.43;;;4.03;;
1416;SDS011;703;51.162;13.574;2023-04-01T00:32:28;34.57;;;5.03;;
1416;SDS011;703;51.162;13.574;2023-04-01T00:34:55;35.00;;;5.77;;
1416;SDS011;703;51.162;13.574;2023-04-01T00:37:21;35.30;;;4.70;;
1416;SDS011;703;51.162;13.574;2023-04-01T00:39:47;34.93;;;4.47;;
1416;SDS011;703;51.162;13.574;2023-04-01T00:42:13;35.10;;;4.77;;
1416;SDS011;703;51.162;13.574;2023-04-01T00:44:39;34.63;;;4.83;;
1416;SDS011;703;51.162;13.574;2023-04-01T00:47:05;35.70;;;5.30;;
1416;SDS011;703;51.162;13.574;2023-04-01T00:49:31;34.30;;;4.53;;
1416;SDS011;703;51.162;13.574;2023-04-01T00:52:01;35.03;;;4.80;;
1416;SDS011;703;51.162;13.574;2023-04-01T00:54:29;34.83;;;4.90;;
1416;SDS011;703;51.162;13.574;2023-04-01T00:57:08;36.53;;;4.93;;
1416;SDS011;703;51.162;13.574;2023-04-01T00:59:39;34.53;;;4.30;;
1416;SDS011;703;51.162;13.574;2023-04-01T01:02:10;35.23;;;4.77;;
1416;SDS011;703;51.162;13.574;2023-04-01T01:04:37;35.70;;;5.53;;
1416;SDS011;703;51.162;13.574;2023-04-01T01:07:07;34.90;;;4.60;;
1416;SDS011;703;51.162;13.574;2023-04-01T01:12:40;34.67;;;4.80;;
1416;SDS011;703;51.162;13.574;2023-04-01T01:23:23;35.93;;;4.93;;
1416;SDS011;703;51.162;13.574;2023-04-01T01:31:30;34.87;;;6.20;;
1416;SDS011;703;51.162;13.574;2023-04-01T01:34:09;36.37;;;6.40;;
1416;SDS011;703;51.162;13.574;2023-04-01T01:36:48;36.00;;;5.00;;
1416;SDS011;703;51.162;13.574;2023-04-01T01:39:18;38.47;;;4.90;;
1416;SDS011;703;51.162;13.574;2023-04-01T01:41:45;37.57;;;4.90;;
1416;SDS011;703;51.162;13.574;2023-04-01T01:44:14;42.40;;;6.17;;
1416;SDS011;703;51.162;13.574;2023-04-01T01:46:41;41.67;;;5.80;;
1416;SDS011;703;51.162;13.574;2023-04-01T01:49:09;38.53;;;5.20;;
1416;SDS011;703;51.162;13.574;2023-04-01T01:51:38;43.70;;;6.00;;
1416;SDS011;703;51.162;13.574;2023-04-01T01:54:04;38.77;;;5.30;;
1416;SDS011;703;51.162;13.574;2023-04-01T01:56:30;40.07;;;5.60;;
1416;SDS011;703;51.162;13.574;2023-04-01T01:59:02;40.60;;;5.07;;
1416;SDS011;703;51.162;13.574;2023-04-01T02:01:31;41.37;;;5.30;;
1416;SDS011;703;51.162;13.574;2023-04-01T02:04:00;42.57;;;6.43;;
1416;SDS011;703;51.162;13.574;2023-04-01T02:06:28;39.77;;;5.30;;
1416;SDS011;703;51.162;13.574;2023-04-01T02:08:57;40.37;;;5.40;;
1416;SDS011;703;51.162;13.574;2023-04-01T02:11:30;39.67;;;5.60;;
1416;SDS011;703;51.162;13.574;2023-04-01T02:14:19;44.03;;;6.90;;
1416;SDS011;703;51.162;13.574;2023-04-01T02:16:57;39.53;;;6.00;;
1416;SDS011;703;51.162;13.574;2023-04-01T02:19:32;40.80;;;6.13;;
1416;SDS011;703;51.162;13.574;2023-04-01T02:22:03;40.80;;;6.50;;
1416;SDS011;703;51.162;13.574;2023-04-01T02:24:33;43.57;;;9.67;;
1416;SDS011;703;51.162;13.574;2023-04-01T02:27:00;39.47;;;6.13;;
1416;SDS011;703;51.162;13.574;2023-04-01T02:29:26;42.13;;;5.83;;
1416;SDS011;703;51.162;13.574;2023-04-01T02:31:52;43.17;;;6.10;;
1416;SDS011;703;51.162;13.574;2023-04-01T02:34:19;38.83;;;6.00;;
1416;SDS011;703;51.162;13.574;2023-04-01T02:36:46;37.97;;;4.50;;
1416;SDS011;703;51.162;13.574;2023-04-01T02:39:13;38.27;;;4.77;;
1416;SDS011;703;51.162;13.574;2023-04-01T02:41:42;38.80;;;5.33;;
1416;SDS011;703;51.162;13.574;2023-04-01T02:44:09;40.77;;;7.60;;
1416;SDS011;703;51.162;13.574;2023-04-01T02:46:36;39.20;;;5.67;;
1416;SDS011;703;51.162;13.574;2023-04-01T02:49:02;40.67;;;6.20;;
1416;SDS011;703;51.162;13.574;2023-04-01T02:51:28;37.60;;;5.63;;
1416;SDS011;703;51.162;13.574;2023-04-01T02:53:53;38.50;;;5.20;;
1416;SDS011;703;51.162;13.574;2023-04-01T02:56:19;40.27;;;6.43;;
1416;SDS011;703;51.162;13.574;2023-04-01T02:58:45;38.40;;;5.40;;
1416;SDS011;703;51.162;13.574;2023-04-01T03:01:11;38.90;;;5.80;;
1416;SDS011;703;51.162;13.574;2023-04-01T03:03:36;39.03;;;5.27;;
1416;SDS011;703;51.162;13.574;2023-04-01T03:06:06;42.97;;;6.23;;
1416;SDS011;703;51.162;13.574;2023-04-01T03:08:36;40.73;;;6.23;;
1416;SDS011;703;51.162;13.574;2023-04-01T03:11:01;39.73;;;5.50;;
1416;SDS011;703;51.162;13.574;2023-04-01T03:13:27;40.03;;;5.20;;
1416;SDS011;703;51.162;13.574;2023-04-01T03:15:53;39.80;;;5.27;;
1416;SDS011;703;51.162;13.574;2023-04-01T03:18:19;39.97;;;5.77;;
1416;SDS011;703;51.162;13.574;2023-04-01T03:20:44;39.43;;;5.77;;
1416;SDS011;703;51.162;13.574;2023-04-01T03:23:10;42.70;;;6.37;;
1416;SDS011;703;51.162;13.574;2023-04-01T03:25:35;44.13;;;6.40;;
1416;SDS011;703;51.162;13.574;2023-04-01T03:28:01;39.83;;;5.73;;
1416;SDS011;703;51.162;13.574;2023-04-01T03:30:27;40.67;;;7.10;;
1416;SDS011;703;51.162;13.574;2023-04-01T03:32:54;40.57;;;5.77;;
1416;SDS011;703;51.162;13.574;2023-04-01T03:35:20;38.80;;;5.60;;
1416;SDS011;703;51.162;13.574;2023-04-01T03:37:46;38.13;;;5.23;;
1416;SDS011;703;51.162;13.574;2023-04-01T03:40:11;42.67;;;6.33;;
1416;SDS011;703;51.162;13.574;2023-04-01T03:42:37;41.17;;;7.20;;
1416;SDS011;703;51.162;13.574;2023-04-01T03:45:03;41.40;;;5.27;;
1416;SDS011;703;51.162;13.574;2023-04-01T03:47:29;38.00;;;4.87;;
1416;SDS011;703;51.162;13.574;2023-04-01T03:49:55;39.00;;;5.57;;
1416;SDS011;703;51.162;13.574;2023-04-01T03:52:20;42.83;;;6.03;;
1416;SDS011;703;51.162;13.574;2023-04-01T03:54:46;38.03;;;5.20;;
1416;SDS011;703;51.162;13.574;2023-04-01T03:57:11;39.10;;;5.80;;
1416;SDS011;703;51.162;13.574;2023-04-01T03:59:37;40.30;;;6.10;;
1416;SDS011;703;51.162;13.574;2023-04-01T04:02:02;39.57;;;5.70;;
1416;SDS011;703;51.162;13.574;2023-04-01T04:04:28;38.10;;;5.93;;
1416;SDS011;703;51.162;13.574;2023-04-01T04:06:55;37.20;;;5.63;;
1416;SDS011;703;51.162;13.574;2023-04-01T04:09:21;37.77;;;5.30;;
1416;SDS011;703;51.162;13.574;2023-04-01T04:11:46;37.67;;;5.80;;
1416;SDS011;703;51.162;13.574;2023-04-01T04:14:12;40.07;;;6.97;;
1416;SDS011;703;51.162;13.574;2023-04-01T04:16:38;39.60;;;5.50;;
1416;SDS011;703;51.162;13.574;2023-04-01T04:19:03;36.80;;;4.97;;
1416;SDS011;703;51.162;13.574;2023-04-01T04:21:29;37.87;;;5.70;;
1416;SDS011;703;51.162;13.574;2023-04-01T04:23:54;37.27;;;5.43;;
1416;SDS011;703;51.162;13.574;2023-04-01T04:26:20;36.65;;;5.40;;
1416;SDS011;703;51.162;13.574;2023-04-01T04:28:45;38.07;;;5.70;;
1416;SDS011;703;51.162;13.574;2023-04-01T04:31:11;38.83;;;6.27;;
1416;SDS011;703;51.162;13.574;2023-04-01T04:33:37;36.17;;;5.50;;
1416;SDS011;703;51.162;13.574;2023-04-01T04:36:03;39.00;;;5.00;;
1416;SDS011;703;51.162;13.574;2023-04-01T04:38:29;37.33;;;5.50;;
1416;SDS011;703;51.162;13.574;2023-04-01T04:40:55;37.10;;;5.70;;
1416;SDS011;703;51.162;13.574;2023-04-01T04:43:21;37.93;;;5.93;;
1416;SDS011;703;51.162;13.574;2023-04-01T04:45:46;36.97;;;5.50;;
1416;SDS011;703;51.162;13.574;2023-04-01T04:48:13;41.10;;;6.70;;
1416;SDS011;703;51.162;13.574;2023-04-01T04:50:43;40.80;;;7.40;;
1416;SDS011;703;51.162;13.574;2023-04-01T04:53:14;37.53;;;5.87;;
1416;SDS011;703;51.162;13.574;2023-04-01T04:55:44;37.37;;;7.50;;
1416;SDS011;703;51.162;13.574;2023-04-01T04:58:14;36.33;;;5.90;;
1416;SDS011;703;51.162;13.574;2023-04-01T05:00:40;35.10;;;5.30;;
1416;SDS011;703;51.162;13.574;2023-04-01T05:03:05;35.07;;;4.63;;
1416;SDS011;703;51.162;13.574;2023-04-01T05:05:32;37.17;;;5.40;;
1416;SDS011;703;51.162;13.574;2023-04-01T05:07:57;37.63;;;6.00;;
1416;SDS011;703;51.162;13.574;2023-04-01T05:10:23;37.77;;;6.47;;
1416;SDS011;703;51.162;13.574;2023-04-01T05:12:48;36.80;;;5.77;;
1416;SDS011;703;51.162;13.574;2023-04-01T05:15:14;36.60;;;6.10;;
1416;SDS011;703;51.162;13.574;2023-04-01T05:17:40;40.07;;;6.40;;
1416;SDS011;703;51.162;13.574;2023-04-01T05:20:05;36.47;;;5.80;;
1416;SDS011;703;51.162;13.574;2023-04-01T05:22:31;37.87;;;6.40;;
1416;SDS011;703;51.162;13.574;2023-04-01T05:24:57;38.30;;;6.17;;
1416;SDS011;703;51.162;13.574;2023-04-01T05:27:22;39.20;;;5.15;;
1416;SDS011;703;51.162;13.574;2023-04-01T05:29:48;38.07;;;5.60;;
1416;SDS011;703;51.162;13.574;2023-04-01T05:32:14;38.00;;;5.10;;
1416;SDS011;703;51.162;13.574;2023-04-01T05:34:39;38.10;;;5.80;;
1416;SDS011;703;51.162;13.574;2023-04-01T05:37:05;38.67;;;6.07;;
1416;SDS011;703;51.162;13.574;2023-04-01T05:39:35;38.10;;;5.90;;
1416;SDS011;703;51.162;13.574;2023-04-01T05:42:02;38.10;;;6.40;;
1416;SDS011;703;51.162;13.574;2023-04-01T05:44:27;39.93;;;6.20;;
1416;SDS011;703;51.162;13.574;2023-04-01T05:46:53;37.30;;;5.27;;
1416;SDS011;703;51.162;13.574;2023-04-01T05:49:18;38.10;;;6.17;;
1416;SDS011;703;51.162;13.574;2023-04-01T05:51:44;41.67;;;6.87;;
1416;SDS011;703;51.162;13.574;2023-04-01T05:54:09;37.03;;;5.67;;
1416;SDS011;703;51.162;13.574;2023-04-01T05:56:35;39.10;;;5.87;;
1416;SDS011;703;51.162;13.574;2023-04-01T05:59:00;38.35;;;6.50;;
1416;SDS011;703;51.162;13.574;2023-04-01T06:01:26;40.17;;;6.13;;
1416;SDS011;703;51.162;13.574;2023-04-01T06:03:51;39.57;;;5.90;;
1416;SDS011;703;51.162;13.574;2023-04-01T06:06:27;38.97;;;5.40;;
1416;SDS011;703;51.162;13.574;2023-04-01T06:08:53;40.83;;;6.40;;
1416;SDS011;703;51.162;13.574;2023-04-01T06:11:28;37.90;;;5.63;;
1416;SDS011;703;51.162;13.574;2023-04-01T06:22:38;40.60;;;6.27;;
1416;SDS011;703;51.162;13.574;2023-04-01T06:28:50;41.60;;;6.80;;
1416;SDS011;703;51.162;13.574;2023-04-01T06:34:26;41.27;;;6.30;;
1416;SDS011;703;51.162;13.574;2023-04-01T06:42:49;38.10;;;6.63;;
1416;SDS011;703;51.162;13.574;2023-04-01T06:45:27;39.33;;;5.87;;
1416;SDS011;703;51.162;13.574;2023-04-01T06:50:41;38.43;;;7.00;;
1416;SDS011;703;51.162;13.574;2023-04-01T06:53:21;41.13;;;6.50;;
1416;SDS011;703;51.162;13.574;2023-04-01T06:56:10;40.03;;;7.30;;
1416;SDS011;703;51.162;13.574;2023-04-01T06:58:44;39.13;;;6.27;;
1416;SDS011;703;51.162;13.574;2023-04-01T07:01:14;37.73;;;6.80;;
1416;SDS011;703;51.162;13.574;2023-04-01T07:03:53;39.27;;;6.13;;
1416;SDS011;703;51.162;13.574;2023-04-01T07:06:54;37.63;;;6.27;;
1416;SDS011;703;51.162;13.574;2023-04-01T07:09:24;40.67;;;11.90;;
1416;SDS011;703;51.162;13.574;2023-04-01T07:11:53;38.57;;;8.50;;
1416;SDS011;703;51.162;13.574;2023-04-01T07:14:26;36.70;;;5.97;;
1416;SDS011;703;51.162;13.574;2023-04-01T07:17:19;38.27;;;7.87;;
1416;SDS011;703;51.162;13.574;2023-04-01T07:19:50;38.73;;;7.63;;
1416;SDS011;703;51.162;13.574;2023-04-01T07:22:38;36.37;;;6.40;;
1416;SDS011;703;51.162;13.574;2023-04-01T07:25:15;38.13;;;9.10;;
1416;SDS011;703;51.162;13.574;2023-04-01T07:27:51;38.87;;;7.23;;
1416;SDS011;703;51.162;13.574;2023-04-01T07:30:22;37.30;;;6.13;;
1416;SDS011;703;51.162;13.574;2023-04-01T07:33:00;37.93;;;7.20;;
1416;SDS011;703;51.162;13.574;2023-04-01T07:35:38;36.67;;;6.47;;
1416;SDS011;703;51.162;13.574;2023-04-01T07:41:29;37.60;;;6.70;;
1416;SDS011;703;51.162;13.574;2023-04-01T07:44:35;39.27;;;6.30;;
1416;SDS011;703;51.162;13.574;2023-04-01T07:46:53;38.17;;;6.30;;
1416;SDS011;703;51.162;13.574;2023-04-01T07:52:12;39.80;;;6.57;;
1416;SDS011;703;51.162;13.574;2023-04-01T07:54:48;40.13;;;5.70;;
1416;SDS011;703;51.162;13.574;2023-04-01T07:57:22;38.73;;;6.23;;
1416;SDS011;703;51.162;13.574;2023-04-01T08:05:41;36.60;;;5.80;;
1416;SDS011;703;51.162;13.574;2023-04-01T08:11:13;41.00;;;6.80;;
1416;SDS011;703;51.162;13.574;2023-04-01T08:14:04;36.53;;;6.07;;
1416;SDS011;703;51.162;13.574;2023-04-01T08:22:02;38.73;;;6.30;;
1416;SDS011;703;51.162;13.574;2023-04-01T08:24:42;38.10;;;6.10;;
1416;SDS011;703;51.162;13.574;2023-04-01T08:27:11;39.23;;;7.97;;
1416;SDS011;703;51.162;13.574;2023-04-01T08:30:01;39.77;;;6.63;;
1416;SDS011;703;51.162;13.574;2023-04-01T08:32:33;39.60;;;6.60;;
1416;SDS011;703;51.162;13.574;2023-04-01T08:35:09;41.10;;;8.07;;
1416;SDS011;703;51.162;13.574;2023-04-01T08:37:45;38.40;;;6.20;;
1416;SDS011;703;51.162;13.574;2023-04-01T08:43:07;39.13;;;6.87;;
1416;SDS011;703;51.162;13.574;2023-04-01T08:54:43;41.70;;;7.30;;
1416;SDS011;703;51.162;13.574;2023-04-01T09:06:11;35.20;;;5.57;;
1416;SDS011;703;51.162;13.574;2023-04-01T09:17:18;39.10;;;8.93;;
1416;SDS011;703;51.162;13.574;2023-04-01T09:28:57;37.60;;;8.47;;
1416;SDS011;703;51.162;13.574;2023-04-01T09:34:45;38.40;;;7.60;;
1416;SDS011;703;51.162;13.574;2023-04-01T09:42:43;38.97;;;8.17;;
1416;SDS011;703;51.162;13.574;2023-04-01T09:51:12;39.07;;;8.97;;
1416;SDS011;703;51.162;13.574;2023-04-01T09:56:43;37.30;;;6.50;;
1416;SDS011;703;51.162;13.574;2023-04-01T09:59:32;38.33;;;7.13;;
1416;SDS011;703;51.162;13.574;2023-04-01T10:02:24;37.30;;;6.80;;
1416;SDS011;703;51.162;13.574;2023-04-01T10:08:21;37.10;;;6.60;;
1416;SDS011;703;51.162;13.574;2023-04-01T10:13:49;37.30;;;7.00;;
1416;SDS011;703;51.162;13.574;2023-04-01T10:19:43;39.13;;;13.27;;
1416;SDS011;703;51.162;13.574;2023-04-01T10:25:44;36.10;;;5.80;;
1416;SDS011;703;51.162;13.574;2023-04-01T10:31:32;39.50;;;7.63;;
1416;SDS011;703;51.162;13.574;2023-04-01T10:34:26;37.77;;;7.60;;
1416;SDS011;703;51.162;13.574;2023-04-01T10:37:09;37.50;;;6.93;;
1416;SDS011;703;51.162;13.574;2023-04-01T10:48:33;36.07;;;6.10;;
1416;SDS011;703;51.162;13.574;2023-04-01T10:51:45;36.70;;;6.67;;
1416;SDS011;703;51.162;13.574;2023-04-01T11:11:44;35.13;;;6.43;;
1416;SDS011;703;51.162;13.574;2023-04-01T11:22:58;33.50;;;5.90;;
1416;SDS011;703;51.162;13.574;2023-04-01T11:28:41;34.60;;;6.97;;
1416;SDS011;703;51.162;13.574;2023-04-01T11:31:46;34.13;;;7.97;;
1416;SDS011;703;51.162;13.574;2023-04-01T11:34:40;33.70;;;5.13;;
1416;SDS011;703;51.162;13.574;2023-04-01T11:37:22;34.77;;;6.63;;
1416;SDS011;703;51.162;13.574;2023-04-01T11:43:12;34.30;;;7.23;;
1416;SDS011;703;51.162;13.574;2023-04-01T11:45:46;32.87;;;5.07;;
1416;SDS011;703;51.162;13.574;2023-04-01T11:48:41;33.97;;;6.43;;
1416;SDS011;703;51.162;13.574;2023-04-01T12:00:34;34.10;;;7.43;;
1416;SDS011;703;51.162;13.574;2023-04-01T12:09:21;33.27;;;5.90;;
1416;SDS011;703;51.162;13.574;2023-04-01T12:11:51;33.10;;;5.10;;
1416;SDS011;703;51.162;13.574;2023-04-01T12:14:34;34.10;;;6.53;;
1416;SDS011;703;51.162;13.574;2023-04-01T12:17:28;33.70;;;5.83;;
1416;SDS011;703;51.162;13.574;2023-04-01T12:20:48;33.20;;;6.00;;
1416;SDS011;703;51.162;13.574;2023-04-01T12:26:13;32.93;;;4.93;;
1416;SDS011;703;51.162;13.574;2023-04-01T12:29:07;35.97;;;14.23;;
1416;SDS011;703;51.162;13.574;2023-04-01T12:31:58;33.37;;;6.43;;
1416;SDS011;703;51.162;13.574;2023-04-01T12:37:41;34.60;;;5.87;;
1416;SDS011;703;51.162;13.574;2023-04-01T12:48:37;34.60;;;5.97;;
1416;SDS011;703;51.162;13.574;2023-04-01T12:57:10;33.37;;;6.40;;
1416;SDS011;703;51.162;13.574;2023-04-01T13:05:51;33.27;;;4.70;;
1416;SDS011;703;51.162;13.574;2023-04-01T13:11:57;33.10;;;5.20;;
1416;SDS011;703;51.162;13.574;2023-04-01T13:19:56;33.23;;;5.20;;
1416;SDS011;703;51.162;13.574;2023-04-01T13:22:33;31.93;;;4.67;;
1416;SDS011;703;51.162;13.574;2023-04-01T13:27:51;33.27;;;6.07;;
1416;SDS011;703;51.162;13.574;2023-04-01T13:30:40;33.10;;;6.00;;
1416;SDS011;703;51.162;13.574;2023-04-01T13:33:17;34.00;;;6.57;;
1416;SDS011;703;51.162;13.574;2023-04-01T13:35:58;31.63;;;4.30;;
1416;SDS011;703;51.162;13.574;2023-04-01T13:41:30;32.23;;;5.60;;
1416;SDS011;703;51.162;13.574;2023-04-01T13:44:16;31.53;;;4.57;;
1416;SDS011;703;51.162;13.574;2023-04-01T13:58:04;31.90;;;4.90;;
1416;SDS011;703;51.162;13.574;2023-04-01T14:00:50;31.43;;;4.50;;
1416;SDS011;703;51.162;13.574;2023-04-01T14:09:34;32.77;;;4.90;;
1416;SDS011;703;51.162;13.574;2023-04-01T14:26:33;31.37;;;3.70;;
1416;SDS011;703;51.162;13.574;2023-04-01T14:32:16;33.20;;;6.33;;
1416;SDS011;703;51.162;13.574;2023-04-01T14:35:11;32.83;;;5.13;;
1416;SDS011;703;51.162;13.574;2023-04-01T14:46:05;34.50;;;9.07;;
1416;SDS011;703;51.162;13.574;2023-04-01T14:48:51;33.73;;;8.63;;
1416;SDS011;703;51.162;13.574;2023-04-01T14:51:29;32.93;;;7.27;;
1416;SDS011;703;51.162;13.574;2023-04-01T14:56:50;34.40;;;12.23;;
1416;SDS011;703;51.162;13.574;2023-04-01T14:59:28;32.20;;;7.40;;
1416;SDS011;703;51.162;13.574;2023-04-01T15:07:44;31.87;;;5.90;;
1416;SDS011;703;51.162;13.574;2023-04-01T15:16:07;31.37;;;5.10;;
1416;SDS011;703;51.162;13.574;2023-04-01T15:21:56;32.40;;;6.30;;
1416;SDS011;703;51.162;13.574;2023-04-01T15:43:50;32.93;;;5.27;;
1416;SDS011;703;51.162;13.574;2023-04-01T15:49:14;32.13;;;5.80;;
1416;SDS011;703;51.162;13.574;2023-04-01T15:51:56;31.70;;;5.47;;
1416;SDS011;703;51.162;13.574;2023-04-01T15:57:28;31.97;;;6.00;;
1416;SDS011;703;51.162;13.574;2023-04-01T16:00:23;32.20;;;5.40;;
1416;SDS011;703;51.162;13.574;2023-04-01T16:05:57;31.53;;;4.57;;
1416;SDS011;703;51.162;13.574;2023-04-01T16:14:31;31.50;;;4.13;;
1416;SDS011;703;51.162;13.574;2023-04-01T16:17:25;31.77;;;5.23;;
1416;SDS011;703;51.162;13.574;2023-04-01T16:20:17;32.40;;;5.40;;
1416;SDS011;703;51.162;13.574;2023-04-01T16:25:43;31.80;;;4.50;;
1416;SDS011;703;51.162;13.574;2023-04-01T16:28:26;31.60;;;4.97;;
1416;SDS011;703;51.162;13.574;2023-04-01T16:36:21;32.77;;;6.33;;
1416;SDS011;703;51.162;13.574;2023-04-01T16:39:04;32.70;;;4.57;;
1416;SDS011;703;51.162;13.574;2023-04-01T16:41:52;33.17;;;5.47;;
1416;SDS011;703;51.162;13.574;2023-04-01T16:44:47;32.27;;;5.23;;
1416;SDS011;703;51.162;13.574;2023-04-01T16:47:30;33.17;;;5.70;;
1416;SDS011;703;51.162;13.574;2023-04-01T16:50:23;34.93;;;4.77;;
1416;SDS011;703;51.162;13.574;2023-04-01T16:55:54;32.10;;;4.40;;
1416;SDS011;703;51.162;13.574;2023-04-01T16:58:34;32.60;;;5.30;;
1416;SDS011;703;51.162;13.574;2023-04-01T17:01:03;31.97;;;4.80;;
1416;SDS011;703;51.162;13.574;2023-04-01T17:03:46;32.40;;;5.07;;
1416;SDS011;703;51.162;13.574;2023-04-01T17:06:19;31.90;;;4.43;;
1416;SDS011;703;51.162;13.574;2023-04-01T17:11:44;32.40;;;5.37;;
1416;SDS011;703;51.162;13.574;2023-04-01T17:14:44;32.97;;;5.10;;
1416;SDS011;703;51.162;13.574;2023-04-01T17:17:38;36.73;;;5.90;;
1416;SDS011;703;51.162;13.574;2023-04-01T17:23:24;33.10;;;6.30;;
1416;SDS011;703;51.162;13.574;2023-04-01T17:26:20;33.27;;;5.60;;
1416;SDS011;703;51.162;13.574;2023-04-01T17:28:52;32.10;;;4.50;;
1416;SDS011;703;51.162;13.574;2023-04-01T17:34:19;35.60;;;5.97;;
1416;SDS011;703;51.162;13.574;2023-04-01T17:37:06;32.63;;;4.70;;
1416;SDS011;703;51.162;13.574;2023-04-01T17:39:37;33.90;;;5.57;;
1416;SDS011;703;51.162;13.574;2023-04-01T17:42:40;33.33;;;5.37;;
1416;SDS011;703;51.162;13.574;2023-04-01T17:45:18;32.47;;;4.70;;
1416;SDS011;703;51.162;13.574;2023-04-01T17:47:59;33.50;;;4.80;;
1416;SDS011;703;51.162;13.574;2023-04-01T17:51:00;34.70;;;6.90;;
1416;SDS011;703;51.162;13.574;2023-04-01T17:53:41;32.77;;;5.10;;
1416;SDS011;703;51.162;13.574;2023-04-01T18:05:11;33.50;;;5.70;;
1416;SDS011;703;51.162;13.574;2023-04-01T18:08:03;33.47;;;5.70;;
1416;SDS011;703;51.162;13.574;2023-04-01T18:10:57;34.43;;;6.10;;
1416;SDS011;703;51.162;13.574;2023-04-01T18:21:53;35.17;;;6.97;;
1416;SDS011;703;51.162;13.574;2023-04-01T18:24:36;33.40;;;5.90;;
1416;SDS011;703;51.162;13.574;2023-04-01T18:27:15;34.87;;;7.07;;
1416;SDS011;703;51.162;13.574;2023-04-01T18:29:48;35.40;;;6.60;;
1416;SDS011;703;51.162;13.574;2023-04-01T18:32:35;35.10;;;7.23;;
1416;SDS011;703;51.162;13.574;2023-04-01T18:35:19;38.77;;;8.37;;
1416;SDS011;703;51.162;13.574;2023-04-01T18:49:13;34.43;;;4.90;;
1416;SDS011;703;51.162;13.574;2023-04-01T18:51:51;36.10;;;6.53;;
1416;SDS011;703;51.162;13.574;2023-04-01T18:54:33;35.37;;;6.63;;
1416;SDS011;703;51.162;13.574;2023-04-01T18:57:14;34.60;;;5.13;;
1416;SDS011;703;51.162;13.574;2023-04-01T18:59:57;35.00;;;6.67;;
1416;SDS011;703;51.162;13.574;2023-04-01T19:10:59;35.70;;;6.00;;
1416;SDS011;703;51.162;13.574;2023-04-01T19:13:49;34.60;;;5.80;;
1416;SDS011;703;51.162;13.574;2023-04-01T19:30:07;35.20;;;5.97;;
1416;SDS011;703;51.162;13.574;2023-04-01T19:33:01;34.40;;;5.53;;
1416;SDS011;703;51.162;13.574;2023-04-01T19:35:47;34.37;;;5.00;;
1416;SDS011;703;51.162;13.574;2023-04-01T19:43:58;35.35;;;6.30;;
1416;SDS011;703;51.162;13.574;2023-04-01T19:46:48;34.80;;;5.57;;
1416;SDS011;703;51.162;13.574;2023-04-01T19:49:24;35.43;;;6.40;;
1416;SDS011;703;51.162;13.574;2023-04-01T19:52:06;35.57;;;6.60;;
1416;SDS011;703;51.162;13.574;2023-04-01T19:54:56;36.50;;;6.63;;
1416;SDS011;703;51.162;13.574;2023-04-01T20:00:15;36.27;;;6.83;;
1416;SDS011;703;51.162;13.574;2023-04-01T20:03:03;36.63;;;7.87;;
1416;SDS011;703;51.162;13.574;2023-04-01T20:08:22;36.87;;;7.10;;
1416;SDS011;703;51.162;13.574;2023-04-01T20:11:06;36.97;;;6.73;;
1416;SDS011;703;51.162;13.574;2023-04-01T20:19:28;36.67;;;7.57;;
1416;SDS011;703;51.162;13.574;2023-04-01T20:22:08;36.87;;;7.43;;
1416;SDS011;703;51.162;13.574;2023-04-01T20:25:05;37.00;;;7.60;;
1416;SDS011;703;51.162;13.574;2023-04-01T20:27:44;37.13;;;7.27;;
1416;SDS011;703;51.162;13.574;2023-04-01T20:30:21;37.93;;;8.30;;
1416;SDS011;703;51.162;13.574;2023-04-01T20:35:39;36.93;;;7.80;;
1416;SDS011;703;51.162;13.574;2023-04-01T20:41:07;36.47;;;6.93;;
1416;SDS011;703;51.162;13.574;2023-04-01T20:44:00;37.07;;;6.60;;
1416;SDS011;703;51.162;13.574;2023-04-01T20:46:53;37.63;;;7.23;;
1416;SDS011;703;51.162;13.574;2023-04-01T20:49:42;37.30;;;7.63;;
1416;SDS011;703;51.162;13.574;2023-04-01T20:52:25;38.67;;;7.77;;
1416;SDS011;703;51.162;13.574;2023-04-01T21:09:01;37.97;;;7.80;;
1416;SDS011;703;51.162;13.574;2023-04-01T21:11:41;37.70;;;8.80;;
1416;SDS011;703;51.162;13.574;2023-04-01T21:17:17;39.10;;;8.97;;
1416;SDS011;703;51.162;13.574;2023-04-01T21:25:21;39.33;;;9.50;;
1416;SDS011;703;51.162;13.574;2023-04-01T21:38:57;39.57;;;9.67;;
1416;SDS011;703;51.162;13.574;2023-04-01T21:44:36;40.43;;;9.73;;
1416;SDS011;703;51.162;13.574;2023-04-01T21:50:15;39.77;;;9.13;;
1416;SDS011;703;51.162;13.574;2023-04-01T21:58:34;40.20;;;9.80;;
1416;SDS011;703;51.162;13.574;2023-04-01T22:06:45;39.90;;;9.63;;
1416;SDS011;703;51.162;13.574;2023-04-01T22:09:29;39.90;;;9.60;;
1416;SDS011;703;51.162;13.574;2023-04-01T22:15:14;39.90;;;10.67;;
1416;SDS011;703;51.162;13.574;2023-04-01T22:17:58;44.00;;;14.70;;
1416;SDS011;703;51.162;13.574;2023-04-01T22:20:48;41.67;;;10.83;;
1416;SDS011;703;51.162;13.574;2023-04-01T22:26:15;42.07;;;10.43;;
1416;SDS011;703;51.162;13.574;2023-04-01T22:28:52;41.07;;;11.53;;
1416;SDS011;703;51.162;13.574;2023-04-01T22:31:27;41.10;;;9.67;;
1416;SDS011;703;51.162;13.574;2023-04-01T22:34:14;41.77;;;11.67;;
1416;SDS011;703;51.162;13.574;2023-04-01T22:36:47;40.10;;;9.77;;
1416;SDS011;703;51.162;13.574;2023-04-01T22:48:32;40.90;;;10.60;;
1416;SDS011;703;51.162;13.574;2023-04-01T22:54:18;41.97;;;13.67;;
1416;SDS011;703;51.162;13.574;2023-04-01T22:56:57;41.50;;;11.00;;
1416;SDS011;703;51.162;13.574;2023-04-01T22:59:39;42.07;;;11.13;;
1416;SDS011;703;51.162;13.574;2023-04-01T23:02:14;40.70;;;10.53;;
1416;SDS011;703;51.162;13.574;2023-04-01T23:04:43;40.90;;;10.60;;
1416;SDS011;703;51.162;13.574;2023-04-01T23:13:11;39.70;;;9.03;;
1416;SDS011;703;51.162;13.574;2023-04-01T23:15:43;41.20;;;10.97;;
1416;SDS011;703;51.162;13.574;2023-04-01T23:18:24;40.30;;;10.00;;
1416;SDS011;703;51.162;13.574;2023-04-01T23:21:36;40.30;;;9.27;;
1416;SDS011;703;51.162;13.574;2023-04-01T23:26:43;39.13;;;8.77;;
1416;SDS011;703;51.162;13.574;2023-04-01T23:29:18;40.30;;;9.87;;
1416;SDS011;703;51.162;13.574;2023-04-01T23:31:46;38.80;;;9.50;;
1416;SDS011;703;51.162;13.574;2023-04-01T23:36:39;41.20;;;10.47;;
1416;SDS011;703;51.162;13.574;2023-04-01T23:39:20;41.07;;;11.60;;
1416;SDS011;703;51.162;13.574;2023-04-01T23:41:51;40.20;;;9.40;;
1416;SDS011;703;51.162;13.574;2023-04-01T23:44:19;40.17;;;10.50;;
1416;SDS011;703;51.162;13.574;2023-04-01T23:46:45;39.90;;;9.73;;
1416;SDS011;703;51.162;13.574;2023-04-01T23:49:13;39.97;;;10.27;;
1416;SDS011;703;51.162;13.574;2023-04-01T23:51:55;40.77;;;10.20;;
1416;SDS011;703;51.162;13.574;2023-04-01T23:54:42;40.40;;;9.77;;
1416;SDS011;703;51.162;13.574;2023-04-01T23:57:32;41.03;;;11.30;;
